Time;durP1;ratioP1;P1;durP2;ratioP2;P2;SDS_P1;SDS_P2;PMS_P1;PMS_P2;Temp;Humidity;BMP_temperature;BMP_pressure;BME280_temperature;BME280_humidity;BME280_pressure;Samples;Min_cycle;Max_cycle;Signal;HPM_P1;HPM_P2
2023/10/16 00:00:47;;;;;;;10.27;6.60;;;11.30;99.90;;;;;;4956078;29;20052;-62
2023/10/16 00:03:17;;;;;;;9.75;5.88;;;11.20;99.90;;;;;;4955747;29;20035;-62
2023/10/16 00:05:51;;;;;;;12.48;6.30;;;11.20;99.90;;;;;;4955831;29;20027;-63
2023/10/16 00:08:18;;;;;;;10.02;6.15;;;11.20;99.90;;;;;;4955683;29;20031;-62
2023/10/16 00:10:55;;;;;;;11.15;7.05;;;11.30;99.90;;;;;;4955534;29;20028;-65
2023/10/16 00:13:23;;;;;;;10.82;7.00;;;11.30;99.90;;;;;;4955734;28;20046;-65
2023/10/16 00:15:49;;;;;;;9.65;6.10;;;11.20;99.90;;;;;;4955778;29;20019;-64
2023/10/16 00:18:22;;;;;;;9.85;5.82;;;11.20;99.90;;;;;;4955531;29;20428;-63
2023/10/16 00:20:49;;;;;;;8.38;5.88;;;11.20;99.90;;;;;;4955572;28;20047;-63
2023/10/16 00:23:15;;;;;;;10.13;6.03;;;11.10;99.90;;;;;;4955191;29;20058;-63
2023/10/16 00:25:43;;;;;;;7.35;5.50;;;11.10;99.90;;;;;;4955657;29;20055;-63
2023/10/16 00:28:09;;;;;;;8.45;5.72;;;11.10;99.90;;;;;;4955512;29;20070;-64
2023/10/16 00:30:40;;;;;;;7.80;5.25;;;11.10;99.90;;;;;;4955661;29;20074;-65
2023/10/16 00:33:06;;;;;;;8.82;5.85;;;11.00;99.90;;;;;;4955360;29;20134;-65
2023/10/16 00:35:32;;;;;;;10.70;5.68;;;11.00;99.90;;;;;;4955398;29;20424;-63
2023/10/16 00:37:58;;;;;;;13.10;5.28;;;11.00;99.90;;;;;;4954932;29;20062;-63
2023/10/16 00:40:33;;;;;;;9.30;5.90;;;11.00;99.90;;;;;;4955446;29;20019;-64
2023/10/16 00:43:11;;;;;;;9.20;5.95;;;11.00;99.90;;;;;;4955126;29;20023;-63
2023/10/16 00:45:47;;;;;;;14.95;6.57;;;11.00;99.90;;;;;;4955344;29;20512;-63
2023/10/16 00:48:15;;;;;;;11.32;6.05;;;11.00;99.90;;;;;;4955009;28;20488;-65
2023/10/16 00:50:43;;;;;;;8.35;5.25;;;11.00;99.90;;;;;;4955200;29;20031;-63
2023/10/16 00:53:09;;;;;;;8.77;5.45;;;10.90;99.90;;;;;;4954685;29;20035;-65
2023/10/16 00:55:35;;;;;;;9.20;5.63;;;10.90;99.90;;;;;;4955230;29;20047;-64
2023/10/16 00:58:06;;;;;;;10.57;5.55;;;10.90;99.90;;;;;;4954924;29;20437;-64
2023/10/16 01:00:35;;;;;;;7.90;5.32;;;10.80;99.90;;;;;;4955161;29;20024;-64
2023/10/16 01:03:04;;;;;;;8.55;5.72;;;10.80;99.90;;;;;;4953704;29;20034;-64
2023/10/16 01:05:33;;;;;;;7.95;4.93;;;10.90;99.90;;;;;;4954952;29;20027;-64
2023/10/16 01:08:00;;;;;;;9.75;6.38;;;10.90;99.90;;;;;;4954503;29;20023;-63
2023/10/16 01:10:25;;;;;;;10.05;6.47;;;10.90;99.90;;;;;;4954826;28;20059;-64
2023/10/16 01:12:57;;;;;;;8.43;6.30;;;10.90;99.90;;;;;;4954722;29;20031;-66
2023/10/16 01:15:22;;;;;;;10.37;6.97;;;10.90;99.90;;;;;;4955177;29;20023;-63
2023/10/16 01:17:50;;;;;;;14.30;7.05;;;10.80;99.90;;;;;;4954699;28;20090;-63
2023/10/16 01:20:18;;;;;;;8.82;6.07;;;10.80;99.90;;;;;;4954916;29;20019;-62
2023/10/16 01:22:45;;;;;;;9.40;6.15;;;10.80;99.90;;;;;;4954651;29;20175;-63
2023/10/16 01:25:11;;;;;;;9.77;5.50;;;10.70;99.90;;;;;;4954757;29;20031;-62
2023/10/16 01:27:40;;;;;;;8.15;5.75;;;10.70;99.90;;;;;;4954901;29;20098;-64
2023/10/16 01:30:06;;;;;;;8.30;5.18;;;10.70;99.90;;;;;;4954696;28;20027;-64
2023/10/16 01:32:32;;;;;;;7.18;5.10;;;10.70;99.90;;;;;;4955013;29;20039;-62
2023/10/16 01:35:01;;;;;;;8.70;5.75;;;10.70;99.90;;;;;;4954730;29;20473;-63
2023/10/16 01:37:27;;;;;;;7.45;4.93;;;10.60;99.90;;;;;;4954385;29;20059;-62
2023/10/16 01:40:12;;;;;;;8.32;5.78;;;10.60;99.90;;;;;;4954743;29;20110;-63
2023/10/16 01:42:38;;;;;;;6.90;5.00;;;10.70;99.90;;;;;;4954838;29;20027;-62
2023/10/16 01:45:04;;;;;;;7.95;4.65;;;10.60;99.90;;;;;;4954656;29;20091;-62
2023/10/16 01:47:33;;;;;;;9.23;5.22;;;10.60;99.90;;;;;;4954720;28;20051;-62
2023/10/16 01:50:01;;;;;;;7.78;4.32;;;10.60;99.90;;;;;;4954095;28;20035;-62
2023/10/16 01:52:26;;;;;;;8.05;4.82;;;10.70;99.90;;;;;;4954728;29;20067;-63
2023/10/16 01:54:53;;;;;;;5.55;4.20;;;10.60;99.90;;;;;;4954546;29;20507;-63
2023/10/16 01:57:20;;;;;;;9.02;4.60;;;10.60;99.90;;;;;;4954717;29;20118;-62
2023/10/16 01:59:49;;;;;;;5.05;4.22;;;10.50;99.90;;;;;;4954492;29;20038;-63
2023/10/16 02:02:16;;;;;;;8.60;5.20;;;10.50;99.90;;;;;;4954531;29;20094;-62
2023/10/16 02:04:42;;;;;;;9.00;5.10;;;10.50;99.90;;;;;;4954103;29;20028;-64
2023/10/16 02:07:14;;;;;;;8.57;4.90;;;10.50;99.90;;;;;;4954428;29;20034;-67
2023/10/16 02:09:40;;;;;;;8.38;4.82;;;10.50;99.90;;;;;;4954444;28;20024;-64
2023/10/16 02:12:16;;;;;;;4.93;4.30;;;10.40;99.90;;;;;;4954410;28;20189;-62
2023/10/16 02:14:42;;;;;;;8.18;4.70;;;10.50;99.90;;;;;;4956503;28;20071;-65
2023/10/16 02:17:14;;;;;;;6.72;4.72;;;10.50;99.90;;;;;;4957597;29;20121;-68
2023/10/16 02:19:45;;;;;;;6.65;4.70;;;10.40;99.90;;;;;;4957723;29;20024;-64
2023/10/16 02:22:11;;;;;;;7.43;4.88;;;10.40;99.90;;;;;;4957677;29;20035;-63
2023/10/16 02:24:38;;;;;;;6.05;4.57;;;10.40;99.90;;;;;;4957754;29;20015;-62
2023/10/16 02:27:09;;;;;;;6.25;4.47;;;10.30;99.90;;;;;;4957637;29;20535;-62
2023/10/16 02:29:37;;;;;;;4.82;4.30;;;10.30;99.90;;;;;;4957706;29;20102;-64
2023/10/16 02:32:03;;;;;;;5.95;4.80;;;10.30;99.90;;;;;;4957734;28;20058;-62
2023/10/16 02:34:33;;;;;;;6.25;4.75;;;10.30;99.90;;;;;;4957405;29;20023;-63
2023/10/16 02:37:00;;;;;;;9.57;5.03;;;10.30;99.90;;;;;;4957429;29;20058;-62
2023/10/16 02:39:35;;;;;;;5.82;4.65;;;10.30;99.90;;;;;;4957555;28;20023;-62
2023/10/16 02:42:08;;;;;;;7.18;4.25;;;10.30;99.90;;;;;;4957323;29;20449;-63
2023/10/16 02:44:45;;;;;;;7.75;4.70;;;10.30;99.90;;;;;;4957679;28;20027;-63
2023/10/16 02:47:26;;;;;;;7.25;5.05;;;10.30;99.90;;;;;;4957461;29;20019;-63
2023/10/16 02:49:53;;;;;;;6.57;5.18;;;10.30;99.90;;;;;;4956908;29;20035;-63
2023/10/16 02:52:19;;;;;;;6.35;4.57;;;10.30;99.90;;;;;;4956952;29;20043;-64
2023/10/16 02:54:47;;;;;;;6.03;4.80;;;10.20;99.90;;;;;;4957183;29;20032;-63
2023/10/16 02:57:14;;;;;;;6.22;5.05;;;10.30;99.90;;;;;;4957097;29;20026;-64
2023/10/16 02:59:43;;;;;;;7.03;4.95;;;10.30;99.90;;;;;;4957205;29;20393;-63
2023/10/16 03:02:17;;;;;;;5.88;4.57;;;10.30;99.90;;;;;;4957089;29;20461;-62
2023/10/16 03:04:48;;;;;;;7.68;4.65;;;10.20;99.90;;;;;;4956918;29;20027;-62
2023/10/16 03:07:14;;;;;;;8.07;4.82;;;10.20;99.90;;;;;;4956889;29;20031;-62
2023/10/16 03:09:43;;;;;;;10.90;5.22;;;10.20;99.90;;;;;;4956893;28;20035;-67
2023/10/16 03:12:09;;;;;;;10.15;4.60;;;10.20;99.90;;;;;;4956831;29;20098;-63
2023/10/16 03:14:44;;;;;;;8.63;5.43;;;10.20;99.90;;;;;;4956892;29;20018;-64
2023/10/16 03:17:22;;;;;;;8.10;5.80;;;10.20;99.90;;;;;;4956482;28;20027;-66
2023/10/16 03:19:48;;;;;;;6.97;5.55;;;10.10;99.90;;;;;;4956649;28;20543;-64
2023/10/16 03:22:16;;;;;;;9.85;5.68;;;10.10;99.90;;;;;;4956777;29;20114;-62
2023/10/16 03:24:43;;;;;;;8.07;6.22;;;10.10;99.90;;;;;;4956157;28;20034;-63
2023/10/16 03:27:08;;;;;;;11.43;5.38;;;10.10;99.90;;;;;;4955979;29;20027;-64
2023/10/16 03:29:35;;;;;;;7.78;5.47;;;10.00;99.90;;;;;;4956494;29;20086;-63
2023/10/16 03:32:02;;;;;;;10.13;7.03;;;10.10;99.90;;;;;;4956025;29;20042;-63
2023/10/16 03:34:28;;;;;;;7.45;6.07;;;10.00;99.90;;;;;;4955035;29;20027;-64
2023/10/16 03:37:01;;;;;;;9.30;7.13;;;10.00;99.90;;;;;;4956362;29;20023;-62
2023/10/16 03:39:26;;;;;;;7.97;7.03;;;10.00;99.90;;;;;;4956292;29;20500;-62
2023/10/16 03:41:52;;;;;;;7.63;6.65;;;10.00;99.90;;;;;;4956213;29;20506;-62
2023/10/16 03:44:19;;;;;;;8.55;6.63;;;10.00;99.90;;;;;;4956275;29;20015;-63
2023/10/16 03:46:46;;;;;;;10.32;6.72;;;10.10;99.90;;;;;;4954571;29;20027;-62
2023/10/16 03:49:14;;;;;;;8.65;5.70;;;10.00;99.90;;;;;;4956260;28;20039;-62
2023/10/16 03:51:40;;;;;;;8.30;5.60;;;10.10;99.90;;;;;;4956071;29;20035;-64
2023/10/16 03:54:06;;;;;;;7.30;6.43;;;10.00;99.90;;;;;;4956132;29;20023;-63
2023/10/16 03:56:32;;;;;;;7.22;5.97;;;10.00;99.90;;;;;;4956244;29;20488;-62
2023/10/16 03:58:58;;;;;;;7.97;5.75;;;10.00;99.90;;;;;;4955997;29;20481;-66
2023/10/16 04:01:37;;;;;;;7.78;6.05;;;10.00;99.90;;;;;;4955729;29;20023;-63
2023/10/16 04:04:07;;;;;;;8.80;5.53;;;10.00;99.90;;;;;;4956028;29;20023;-65
2023/10/16 04:06:39;;;;;;;8.95;5.80;;;10.00;99.90;;;;;;4955870;29;20050;-63
2023/10/16 04:09:06;;;;;;;8.18;6.00;;;9.90;99.90;;;;;;4955676;28;20098;-64
2023/10/16 04:11:32;;;;;;;10.45;6.32;;;10.00;99.90;;;;;;4955685;29;20049;-66
2023/10/16 04:13:59;;;;;;;12.40;8.35;;;10.00;99.90;;;;;;4955805;28;20055;-62
2023/10/16 04:16:42;;;;;;;9.00;6.50;;;9.90;99.90;;;;;;4955710;28;20377;-66
2023/10/16 04:21:54;;;;;;;17.00;6.75;;;10.00;99.90;;;;;;4955750;29;20039;-62
2023/10/16 04:27:29;;;;;;;6.47;4.93;;;10.30;99.90;;;;;;4955688;29;20031;-64
2023/10/16 04:30:32;;;;;;;8.25;5.50;;;10.50;99.90;;;;;;4954850;29;20035;-64
2023/10/16 04:36:52;;;;;;;5.35;4.57;;;10.60;99.90;;;;;;4954697;28;20500;-62
2023/10/16 04:46:55;;;;;;;6.40;4.72;;;10.70;99.90;;;;;;4955496;29;20122;-64
2023/10/16 04:49:15;;;;;;;8.40;5.65;;;10.70;99.90;;;;;;4954928;29;20143;-64
2023/10/16 04:51:52;;;;;;;9.07;5.15;;;10.70;99.90;;;;;;4954261;29;20090;-64
2023/10/16 04:54:37;;;;;;;9.98;4.80;;;10.70;99.90;;;;;;4945718;29;20102;-66
2023/10/16 04:59:42;;;;;;;12.18;5.88;;;11.20;99.90;;;;;;4953762;28;20031;-67
2023/10/16 05:02:11;;;;;;;11.45;6.32;;;11.20;99.70;;;;;;4952357;28;20392;-70
2023/10/16 05:07:38;;;;;;;7.35;6.50;;;10.90;99.90;;;;;;4966470;28;20027;-67
2023/10/16 05:10:17;;;;;;;8.93;6.45;;;10.90;99.90;;;;;;4955734;28;20026;-66
2023/10/16 05:15:41;;;;;;;8.52;5.90;;;10.60;99.90;;;;;;4951679;29;20030;-67
2023/10/16 05:18:20;;;;;;;6.93;5.35;;;10.30;99.90;;;;;;4948291;29;20480;-70
2023/10/16 05:20:52;;;;;;;10.98;6.95;;;10.70;99.90;;;;;;4950767;28;20032;-64
2023/10/16 06:15:20;;;;;;;15.98;10.45;;;7.00;99.90;;;;;;4955850;29;20543;-63
2023/10/16 06:17:46;;;;;;;14.60;9.57;;;6.70;99.90;;;;;;4953898;28;20023;-64
2023/10/16 06:20:20;;;;;;;16.95;8.43;;;6.90;99.90;;;;;;4955676;28;20038;-65
2023/10/16 06:22:51;;;;;;;9.23;6.40;;;7.00;99.90;;;;;;4957587;29;20027;-64
2023/10/16 06:25:19;;;;;;;11.93;6.25;;;8.00;99.90;;;;;;4957514;28;20107;-66
2023/10/16 06:27:46;;;;;;;8.75;5.53;;;8.90;99.90;;;;;;4957607;29;20366;-64
2023/10/16 06:30:18;;;;;;;10.35;5.68;;;9.50;99.90;;;;;;4956415;29;20077;-63
2023/10/16 06:32:44;;;;;;;10.48;6.72;;;10.00;99.90;;;;;;4957645;29;20039;-64
2023/10/16 06:35:14;;;;;;;10.35;5.88;;;10.30;99.90;;;;;;4957614;29;20081;-64
2023/10/16 06:37:41;;;;;;;9.60;6.10;;;10.60;99.90;;;;;;4957723;29;20019;-64
2023/10/16 06:40:16;;;;;;;7.30;5.88;;;10.80;99.90;;;;;;4957421;29;20038;-63
2023/10/16 06:42:45;;;;;;;9.80;5.78;;;11.00;99.90;;;;;;4957398;28;20114;-64
2023/10/16 06:45:19;;;;;;;10.02;6.05;;;11.10;99.90;;;;;;4957362;29;20028;-63
2023/10/16 06:47:48;;;;;;;8.55;5.95;;;11.20;99.90;;;;;;4957247;29;20024;-66
2023/10/16 06:52:50;;;;;;;12.27;5.35;;;11.30;99.90;;;;;;4957304;29;20043;-64
2023/10/16 06:55:16;;;;;;;9.10;5.93;;;11.30;99.90;;;;;;4957011;29;20482;-63
2023/10/16 06:57:46;;;;;;;10.70;5.82;;;11.40;99.90;;;;;;4957133;29;20023;-64
2023/10/16 07:00:33;;;;;;;13.35;6.40;;;11.50;99.90;;;;;;4956947;28;20060;-66
2023/10/16 07:03:01;;;;;;;12.50;6.60;;;11.50;99.90;;;;;;4956545;29;20035;-63
2023/10/16 07:05:48;;;;;;;13.93;6.80;;;11.60;99.90;;;;;;4957294;28;20045;-65
2023/10/16 07:08:18;;;;;;;10.77;6.60;;;11.60;99.90;;;;;;4956821;28;20020;-64
2023/10/16 07:10:51;;;;;;;10.77;6.15;;;11.70;99.90;;;;;;4956582;28;20024;-64
2023/10/16 07:13:26;;;;;;;12.45;6.40;;;11.70;99.90;;;;;;4956948;29;20495;-64
2023/10/16 07:15:56;;;;;;;11.55;6.45;;;11.70;99.90;;;;;;4956954;29;20102;-64
2023/10/16 07:18:26;;;;;;;13.80;6.70;;;11.70;99.90;;;;;;4956012;29;20121;-64
2023/10/16 07:23:25;;;;;;;9.57;6.20;;;11.80;99.90;;;;;;4937492;29;20457;-63
2023/10/16 07:28:20;;;;;;;11.93;6.93;;;11.90;99.90;;;;;;4956658;29;20031;-65
2023/10/16 07:30:46;;;;;;;15.38;6.50;;;11.90;99.90;;;;;;4956593;29;20031;-63
2023/10/16 07:33:16;;;;;;;10.25;6.95;;;11.90;99.90;;;;;;4956224;29;20035;-63
2023/10/16 07:35:45;;;;;;;10.38;6.50;;;11.90;99.90;;;;;;4956437;29;20496;-65
2023/10/16 07:38:21;;;;;;;11.02;7.00;;;11.90;99.90;;;;;;4956073;29;20025;-65
2023/10/16 07:40:57;;;;;;;14.32;7.38;;;12.00;99.90;;;;;;4956138;29;20038;-65
2023/10/16 07:43:32;;;;;;;14.25;7.75;;;12.00;99.90;;;;;;4955889;29;20023;-63
2023/10/16 07:48:46;;;;;;;12.48;9.00;;;12.10;99.90;;;;;;4955277;28;20067;-64
2023/10/16 07:51:15;;;;;;;14.05;10.05;;;12.10;99.90;;;;;;4959236;28;20023;-63
2023/10/16 07:53:41;;;;;;;12.68;9.50;;;12.20;99.90;;;;;;4951999;29;20460;-66
2023/10/16 07:56:19;;;;;;;12.10;8.70;;;12.20;99.90;;;;;;4952473;28;20036;-64
2023/10/16 07:58:48;;;;;;;11.20;8.55;;;12.20;99.90;;;;;;4946501;29;20023;-62
2023/10/16 08:03:41;;;;;;;10.98;6.78;;;12.20;99.90;;;;;;4955443;29;20485;-63
2023/10/16 08:06:16;;;;;;;11.57;7.57;;;12.20;99.90;;;;;;4955746;29;20119;-64
2023/10/16 08:08:45;;;;;;;11.73;7.90;;;12.30;99.90;;;;;;4955347;29;20035;-63
2023/10/16 08:11:18;;;;;;;11.50;7.63;;;12.30;99.90;;;;;;4955161;28;20508;-63
2023/10/16 08:13:47;;;;;;;13.70;7.10;;;12.30;99.90;;;;;;4955687;29;20358;-63
2023/10/16 08:16:21;;;;;;;8.85;6.80;;;12.30;99.90;;;;;;4955805;29;20095;-64
2023/10/16 08:18:48;;;;;;;18.15;10.35;;;12.40;99.90;;;;;;4955529;29;20055;-63
2023/10/16 08:21:24;;;;;;;15.35;10.23;;;12.20;99.90;;;;;;4955197;28;20090;-73
2023/10/16 08:23:55;;;;;;;15.07;9.95;;;12.00;99.90;;;;;;4954384;29;20117;-64
2023/10/16 08:26:30;;;;;;;14.75;10.15;;;11.80;99.90;;;;;;4955156;29;20535;-64
2023/10/16 08:29:11;;;;;;;11.55;7.93;;;11.80;99.90;;;;;;4955209;29;20457;-64
2023/10/16 08:31:41;;;;;;;16.95;7.38;;;11.80;99.90;;;;;;4955353;29;20038;-64
2023/10/16 08:34:08;;;;;;;13.55;7.93;;;11.80;99.90;;;;;;4955493;28;20098;-63
2023/10/16 08:36:34;;;;;;;11.77;6.68;;;11.80;99.90;;;;;;4955119;29;20027;-64
2023/10/16 08:39:08;;;;;;;15.32;8.32;;;11.80;99.90;;;;;;4955249;29;20035;-65
2023/10/16 08:41:53;;;;;;;14.68;7.18;;;11.80;99.90;;;;;;4954787;29;20538;-64
2023/10/16 08:44:21;;;;;;;10.55;6.28;;;11.80;99.90;;;;;;4953848;29;20015;-65
2023/10/16 08:47:11;;;;;;;9.20;6.30;;;11.80;99.90;;;;;;4955068;29;20090;-65
2023/10/16 08:49:37;;;;;;;11.75;6.38;;;11.80;99.90;;;;;;4954753;28;20035;-64
2023/10/16 08:52:06;;;;;;;12.55;6.80;;;11.90;99.90;;;;;;4954386;29;20043;-64
2023/10/16 08:57:16;;;;;;;11.93;6.20;;;11.90;99.90;;;;;;4954597;29;20424;-64
2023/10/16 08:59:46;;;;;;;11.80;5.72;;;11.90;99.90;;;;;;4955253;29;20074;-64
2023/10/16 09:02:13;;;;;;;9.02;5.43;;;11.90;99.90;;;;;;4953828;28;20023;-64
2023/10/16 09:04:42;;;;;;;11.38;4.90;;;11.90;99.90;;;;;;4954625;29;20102;-66
2023/10/16 09:07:11;;;;;;;8.75;4.22;;;11.90;99.90;;;;;;4955222;29;20039;-64
2023/10/16 09:09:41;;;;;;;9.55;4.90;;;11.90;99.90;;;;;;4954649;28;20529;-64
2023/10/16 09:12:10;;;;;;;9.95;4.72;;;12.00;99.90;;;;;;4954978;29;20147;-66
2023/10/16 09:14:40;;;;;;;11.13;5.18;;;12.00;99.90;;;;;;4954885;29;20023;-64
2023/10/16 09:17:07;;;;;;;13.13;4.97;;;12.00;99.90;;;;;;4954911;29;20042;-64
2023/10/16 09:19:34;;;;;;;9.30;5.70;;;12.10;99.90;;;;;;4954671;29;20103;-64
2023/10/16 09:22:08;;;;;;;10.95;5.32;;;12.10;99.90;;;;;;4954858;29;20028;-64
2023/10/16 09:24:35;;;;;;;14.65;6.07;;;12.10;99.90;;;;;;4958597;28;20093;-65
2023/10/16 09:27:16;;;;;;;12.15;5.68;;;12.20;99.90;;;;;;4958581;28;20463;-64
2023/10/16 09:29:53;;;;;;;10.15;5.57;;;12.20;99.90;;;;;;4958790;28;20031;-64
2023/10/16 09:32:26;;;;;;;14.38;6.05;;;12.20;99.90;;;;;;4956026;29;20043;-64
2023/10/16 09:35:04;;;;;;;6.45;3.60;;;12.20;99.90;;;;;;4965432;28;20034;-63
2023/10/16 09:37:34;;;;;;;7.70;3.40;;;12.20;99.90;;;;;;4958523;28;20350;-64
2023/10/16 09:40:35;;;;;;;7.57;3.03;;;12.30;99.90;;;;;;4956720;28;20133;-65
2023/10/16 09:43:13;;;;;;;6.20;2.95;;;12.30;99.90;;;;;;4968413;28;20026;-65
2023/10/16 09:45:39;;;;;;;8.15;3.00;;;12.40;99.90;;;;;;4959711;28;20015;-64
2023/10/16 09:48:08;;;;;;;7.38;2.15;;;12.50;99.90;;;;;;4971360;28;20024;-65
2023/10/16 09:50:36;;;;;;;7.13;3.05;;;12.40;99.90;;;;;;4954989;28;20480;-65
2023/10/16 09:53:02;;;;;;;6.20;2.58;;;12.40;99.90;;;;;;4969057;28;20050;-64
2023/10/16 09:55:31;;;;;;;8.57;2.65;;;12.30;99.90;;;;;;4960380;28;20032;-65
2023/10/16 09:58:02;;;;;;;9.82;2.55;;;12.40;99.90;;;;;;4948824;28;20026;-65
2023/10/16 10:03:13;;;;;;;7.35;2.35;;;12.50;99.90;;;;;;4958255;28;20046;-66
2023/10/16 10:05:55;;;;;;;6.43;3.10;;;12.50;99.90;;;;;;4963398;28;20023;-65
2023/10/16 10:08:52;;;;;;;5.90;2.25;;;12.60;99.90;;;;;;4956320;28;20491;-65
2023/10/16 10:11:38;;;;;;;5.47;2.35;;;12.60;99.90;;;;;;4957840;28;20042;-65
2023/10/16 10:14:26;;;;;;;12.52;2.80;;;12.60;99.90;;;;;;4958047;28;20035;-65
2023/10/16 10:16:57;;;;;;;11.82;2.80;;;12.70;99.80;;;;;;4956871;28;20158;-65
2023/10/16 10:19:39;;;;;;;6.43;2.57;;;12.70;99.80;;;;;;4957771;28;20113;-65
2023/10/16 10:22:18;;;;;;;9.10;4.07;;;12.70;99.90;;;;;;4957510;28;20374;-65
2023/10/16 10:25:16;;;;;;;8.50;3.72;;;12.80;99.90;;;;;;4956460;28;20440;-65
2023/10/16 10:27:43;;;;;;;6.63;3.42;;;12.80;99.90;;;;;;4954780;29;20481;-64
2023/10/16 10:30:17;;;;;;;6.25;3.30;;;12.80;99.90;;;;;;4951705;29;20026;-65
2023/10/16 10:32:53;;;;;;;7.82;3.60;;;12.80;99.90;;;;;;4957829;28;20050;-64
2023/10/16 10:35:22;;;;;;;7.38;3.22;;;12.90;99.90;;;;;;4966907;28;20058;-64
2023/10/16 10:37:48;;;;;;;9.75;2.97;;;12.90;99.90;;;;;;4952481;28;20031;-64
2023/10/16 10:40:25;;;;;;;7.25;2.90;;;12.90;99.90;;;;;;4957426;28;20384;-64
2023/10/16 10:42:53;;;;;;;7.05;2.33;;;12.90;99.90;;;;;;4958606;28;20019;-64
2023/10/16 10:45:33;;;;;;;7.47;2.08;;;13.00;99.90;;;;;;4953811;28;20023;-64
2023/10/16 10:48:12;;;;;;;8.10;2.13;;;13.00;99.90;;;;;;4962495;28;20023;-64
2023/10/16 10:50:40;;;;;;;5.53;1.90;;;13.10;99.50;;;;;;4957090;28;20043;-65
2023/10/16 10:53:13;;;;;;;6.90;2.53;;;13.00;99.40;;;;;;4959083;28;20035;-64
2023/10/16 10:55:54;;;;;;;7.63;3.45;;;13.00;99.20;;;;;;4955823;29;20050;-64
2023/10/16 10:58:23;;;;;;;6.78;2.42;;;13.00;98.60;;;;;;4957001;28;20029;-63
2023/10/16 11:00:50;;;;;;;7.93;3.65;;;13.00;98.20;;;;;;4956389;29;20122;-65
2023/10/16 11:03:22;;;;;;;19.17;9.35;;;13.10;98.60;;;;;;4944477;29;20031;-64
2023/10/16 11:05:49;;;;;;;27.25;16.02;;;13.10;98.70;;;;;;4956914;29;20125;-64
2023/10/16 11:10:44;;;;;;;11.10;4.45;;;13.20;98.70;;;;;;4956875;29;20126;-65
2023/10/16 11:13:11;;;;;;;6.65;2.88;;;13.10;98.40;;;;;;4968642;28;20126;-65
2023/10/16 11:15:45;;;;;;;8.85;3.33;;;13.10;98.50;;;;;;4937486;29;20105;-65
2023/10/16 11:18:18;;;;;;;5.13;2.63;;;13.20;98.30;;;;;;4950373;28;20431;-65
2023/10/16 11:21:10;;;;;;;5.07;2.50;;;13.20;97.70;;;;;;4967634;28;20026;-65
2023/10/16 11:23:38;;;;;;;8.63;2.58;;;13.20;97.50;;;;;;4957602;28;20406;-65
2023/10/16 11:26:13;;;;;;;4.78;2.08;;;13.20;97.90;;;;;;4955691;29;20038;-68
2023/10/16 11:28:39;;;;;;;3.58;1.80;;;13.20;97.90;;;;;;4937540;29;20512;-68
2023/10/16 11:31:09;;;;;;;4.00;1.60;;;13.20;97.40;;;;;;4953907;28;20031;-66
2023/10/16 11:33:44;;;;;;;5.70;2.10;;;13.30;97.10;;;;;;4963807;28;20053;-67
2023/10/16 11:36:13;;;;;;;5.05;1.83;;;13.20;97.40;;;;;;4955840;28;20031;-69
2023/10/16 11:38:40;;;;;;;4.35;1.63;;;13.30;97.50;;;;;;4951596;29;20031;-67
2023/10/16 11:41:11;;;;;;;7.15;1.85;;;13.30;97.70;;;;;;4956123;29;20019;-67
2023/10/16 12:03:55;;;;;;;5.23;2.00;;;13.50;96.90;;;;;;4948153;29;20034;-75
2023/10/16 12:06:58;;;;;;;3.42;1.55;;;13.50;97.00;;;;;;4952882;28;20155;-75
2023/10/16 12:09:38;;;;;;;4.25;1.90;;;13.60;96.90;;;;;;4981139;27;2925120;-72
2023/10/16 12:12:31;;;;;;;4.68;1.52;;;13.60;97.00;;;;;;5010070;28;20050;-71
2023/10/16 12:21:52;;;;;;;6.05;2.60;;;13.70;97.50;;;;;;5029553;28;20475;-70
2023/10/16 12:31:03;;;;;;;7.30;3.05;;;13.70;97.60;;;;;;5018560;28;20033;-73
2023/10/16 12:37:07;;;;;;;3.92;2.20;;;13.80;97.60;;;;;;5018983;28;20020;-70
2023/10/16 12:39:56;;;;;;;5.43;1.88;;;13.80;98.10;;;;;;5010416;28;20034;-71
2023/10/16 12:45:44;;;;;;;5.93;1.85;;;13.90;97.50;;;;;;5030829;28;20092;-72
2023/10/16 12:59:08;;;;;;;6.35;1.45;;;13.90;97.40;;;;;;5026362;28;20032;-71
2023/10/16 13:02:05;;;;;;;3.42;0.95;;;14.00;96.60;;;;;;5012217;28;20026;-70
2023/10/16 13:04:33;;;;;;;4.68;1.15;;;14.00;96.90;;;;;;5026876;28;20500;-73
2023/10/16 13:07:00;;;;;;;4.45;1.10;;;14.00;96.70;;;;;;5021491;28;20052;-72
2023/10/16 13:09:30;;;;;;;5.07;1.30;;;14.00;96.60;;;;;;5021049;28;20038;-71
2023/10/16 13:15:29;;;;;;;5.20;0.90;;;14.10;95.90;;;;;;5021236;28;20521;-71
2023/10/16 13:24:42;;;;;;;4.28;1.25;;;14.10;95.80;;;;;;5014176;28;20032;-69
2023/10/16 13:27:40;;;;;;;3.65;1.00;;;14.20;96.30;;;;;;5014215;28;20014;-72
2023/10/16 13:30:11;;;;;;;3.92;1.05;;;14.20;96.40;;;;;;5005726;28;20083;-71
2023/10/16 13:32:41;;;;;;;7.78;1.20;;;14.20;96.50;;;;;;5015208;28;20026;-71
2023/10/16 13:35:39;;;;;;;2.55;0.80;;;14.20;96.20;;;;;;5013467;28;20383;-71
2023/10/16 13:38:07;;;;;;;2.45;0.70;;;14.20;96.00;;;;;;4995916;28;20034;-71
2023/10/16 13:40:35;;;;;;;7.05;1.20;;;14.20;95.90;;;;;;4990833;28;20046;-70
2023/10/16 13:50:18;;;;;;;4.82;1.10;;;14.20;95.90;;;;;;5014288;28;20041;-72
2023/10/16 13:53:10;;;;;;;5.72;1.77;;;14.30;96.00;;;;;;5007104;28;20056;-70
2023/10/16 13:59:00;;;;;;;6.32;1.50;;;14.30;96.00;;;;;;5003752;28;20032;-71
2023/10/16 14:04:52;;;;;;;4.07;1.48;;;14.20;95.90;;;;;;4991740;28;20041;-71
2023/10/16 14:07:25;;;;;;;4.10;1.40;;;14.30;96.00;;;;;;5003245;28;20545;-71
2023/10/16 14:09:51;;;;;;;4.72;1.25;;;14.30;96.00;;;;;;5003067;28;20050;-67
2023/10/16 14:12:25;;;;;;;7.63;1.30;;;14.30;96.10;;;;;;5010754;28;20033;-70
2023/10/16 14:14:51;;;;;;;5.10;1.42;;;14.30;96.30;;;;;;5010449;28;20042;-66
2023/10/16 14:24:01;;;;;;;3.72;0.90;;;14.40;96.20;;;;;;4994137;28;20088;-70
2023/10/16 14:26:29;;;;;;;3.72;1.55;;;14.30;96.30;;;;;;4996704;28;20041;-70
2023/10/16 14:28:59;;;;;;;4.32;1.30;;;14.40;96.50;;;;;;5010126;28;20046;-66
2023/10/16 14:31:26;;;;;;;4.90;1.92;;;14.30;96.40;;;;;;5020031;28;20077;-65
2023/10/16 14:33:53;;;;;;;3.35;1.42;;;14.40;96.90;;;;;;5011761;28;20441;-67
2023/10/16 14:36:24;;;;;;;6.80;1.58;;;14.40;96.60;;;;;;5013458;28;20029;-66
2023/10/16 14:38:51;;;;;;;6.90;1.33;;;14.40;96.70;;;;;;4996848;28;20025;-65
2023/10/16 14:41:23;;;;;;;5.70;1.98;;;14.50;96.90;;;;;;5010225;28;20073;-68
2023/10/16 14:43:51;;;;;;;5.10;1.40;;;14.50;96.90;;;;;;5016522;28;20034;-65
2023/10/16 14:46:21;;;;;;;5.72;1.75;;;14.40;96.50;;;;;;5024975;28;20080;-65
2023/10/16 14:48:46;;;;;;;4.35;1.33;;;14.50;96.80;;;;;;5001563;28;20038;-67
2023/10/16 14:51:15;;;;;;;4.97;1.52;;;14.40;96.30;;;;;;5001053;28;20406;-66
2023/10/16 14:53:46;;;;;;;6.93;1.55;;;14.40;96.00;;;;;;5004129;28;20049;-65
2023/10/16 14:56:18;;;;;;;3.53;0.90;;;14.40;96.00;;;;;;5013523;28;20117;-67
2023/10/16 14:58:49;;;;;;;3.75;0.70;;;14.40;95.80;;;;;;5004727;28;20038;-68
2023/10/16 15:01:16;;;;;;;3.28;0.50;;;14.40;95.70;;;;;;5022108;28;20356;-66
2023/10/16 15:04:04;;;;;;;3.85;1.05;;;14.40;95.40;;;;;;5006306;28;20060;-68
2023/10/16 15:06:33;;;;;;;3.83;0.75;;;14.40;95.40;;;;;;5006219;28;20097;-70
2023/10/16 15:09:09;;;;;;;1.73;0.68;;;14.40;95.50;;;;;;5025879;28;20044;-70
2023/10/16 15:11:35;;;;;;;5.20;0.90;;;14.40;95.10;;;;;;5007148;28;20061;-65
2023/10/16 15:14:01;;;;;;;4.40;0.80;;;14.40;95.40;;;;;;4997391;28;20030;-68
2023/10/16 15:16:27;;;;;;;5.60;0.82;;;14.40;95.40;;;;;;5010445;28;20045;-67
2023/10/16 15:18:56;;;;;;;3.47;0.80;;;14.40;95.60;;;;;;5012305;28;20427;-70
2023/10/16 15:21:27;;;;;;;5.03;1.08;;;14.40;95.70;;;;;;5006405;28;20057;-65
2023/10/16 15:23:58;;;;;;;2.60;0.75;;;14.50;95.70;;;;;;5002261;28;20026;-68
2023/10/16 15:26:31;;;;;;;5.53;0.95;;;14.50;95.90;;;;;;5003709;28;20030;-69
2023/10/16 15:29:35;;;;;;;4.95;1.40;;;14.40;95.90;;;;;;5002192;28;20045;-69
2023/10/16 15:32:19;;;;;;;2.85;1.02;;;14.40;95.90;;;;;;5005553;28;20061;-70
2023/10/16 15:34:45;;;;;;;4.53;1.40;;;14.50;96.20;;;;;;5000047;28;20026;-66
2023/10/16 15:37:10;;;;;;;4.13;1.15;;;14.50;96.20;;;;;;4998353;28;20041;-67
2023/10/16 15:39:37;;;;;;;5.50;0.95;;;14.40;96.20;;;;;;5005845;28;20034;-71
2023/10/16 15:42:03;;;;;;;4.13;1.08;;;14.50;96.30;;;;;;5006388;28;20068;-72
2023/10/16 15:44:29;;;;;;;6.07;1.30;;;14.40;96.30;;;;;;5000103;28;20120;-69
2023/10/16 15:47:07;;;;;;;3.75;0.93;;;14.40;96.40;;;;;;5012134;28;20483;-71
2023/10/16 15:49:33;;;;;;;3.30;1.25;;;14.40;96.50;;;;;;5010449;28;20491;-68
2023/10/16 15:51:59;;;;;;;4.32;1.55;;;14.40;96.40;;;;;;5008288;28;20029;-71
2023/10/16 15:54:32;;;;;;;3.28;1.00;;;14.40;96.40;;;;;;5007848;28;20025;-70
2023/10/16 15:57:00;;;;;;;5.00;1.60;;;14.40;96.30;;;;;;5008852;28;20077;-67
2023/10/16 15:59:26;;;;;;;4.15;1.48;;;14.40;96.30;;;;;;4995064;28;20032;-72
2023/10/16 16:02:02;;;;;;;4.82;1.27;;;14.40;96.30;;;;;;5003345;28;20502;-72
2023/10/16 16:04:28;;;;;;;6.38;1.90;;;14.50;96.30;;;;;;5010555;28;20047;-67